Auburn, Iowa
Current Conditions -  °F | °C
As of 3:35 AM on Sunday 23 Nov 2014 (Local Time) from KCIN Reporting Station
Broken Clouds Broken Clouds  
Wind Chill: 52°   Ceiling: 1400
Heat Index: 52°   Visibility: 10mi
Dew Point: 50°   Wind: 15mph
Humidity: 94%   Direction: 210°SSW
Pressure: 29.49"   Gusts: 23mph
Location:  42.25°N, 94.88°W
Report Text: KCIN 230935Z AUTO 21013G20KT 10SM SCT010 BKN014 SCT034 11/10 A2949 RMK AO2
Loading
Personal Weather Stations






























Interactive Weather Map New forecast layout! Learn more

10-Day Weather Forecast

Advertisements
Track Severe Weather on mobile